createdAt,value
2023-08-11T00:00:18.052Z,1017.82
2023-08-11T00:01:18.508Z,1017.83
2023-08-11T00:02:18.899Z,1017.85
2023-08-11T00:03:19.382Z,1017.81
2023-08-11T00:04:19.764Z,1017.83
2023-08-11T00:05:20.218Z,1017.82
2023-08-11T00:06:20.621Z,1017.82
2023-08-11T00:07:21.051Z,1017.82
2023-08-11T00:08:21.486Z,1017.85
2023-08-11T00:09:21.982Z,1017.84
2023-08-11T00:10:22.348Z,1017.81
2023-08-11T00:11:22.775Z,1017.81
2023-08-11T00:12:23.205Z,1017.84
2023-08-11T00:13:23.639Z,1017.85
2023-08-11T00:14:24.084Z,1017.81
2023-08-11T00:15:24.542Z,1017.82
2023-08-11T00:16:24.928Z,1017.84
2023-08-11T00:17:25.401Z,1017.85
2023-08-11T00:18:25.794Z,1017.81
2023-08-11T00:19:26.224Z,1017.82
2023-08-11T00:20:26.651Z,1017.82
2023-08-11T00:21:27.080Z,1017.89
2023-08-11T00:22:27.519Z,1017.83
2023-08-11T00:23:27.946Z,1017.83
2023-08-11T00:24:28.374Z,1017.84
2023-08-11T00:25:28.818Z,1017.89
2023-08-11T00:26:29.238Z,1017.85
2023-08-11T00:27:29.668Z,1017.85
2023-08-11T00:28:30.104Z,1017.85
2023-08-11T00:29:30.526Z,1017.87
2023-08-11T00:30:30.963Z,1017.85
2023-08-11T00:31:31.453Z,1017.84
2023-08-11T00:32:31.851Z,1017.84
2023-08-11T00:33:32.261Z,1017.83
2023-08-11T00:34:32.679Z,1017.89
2023-08-11T00:35:33.129Z,1017.85
2023-08-11T00:36:33.546Z,1017.87
2023-08-11T00:37:33.973Z,1017.89
2023-08-11T00:38:34.403Z,1017.85
2023-08-11T00:39:34.830Z,1017.85
2023-08-11T00:40:35.275Z,1017.86
2023-08-11T00:41:35.697Z,1017.87
2023-08-11T00:42:36.132Z,1017.88
2023-08-11T00:43:36.554Z,1017.90
2023-08-11T00:44:36.988Z,1017.92
2023-08-11T00:45:37.457Z,1017.91
2023-08-11T00:46:37.840Z,1017.92
2023-08-11T00:47:38.297Z,1017.94
2023-08-11T00:48:39.335Z,1017.92
2023-08-11T00:49:39.132Z,1017.92
2023-08-11T00:50:39.566Z,1017.92
2023-08-11T00:51:40.015Z,1017.93
2023-08-11T00:52:40.432Z,1017.93
2023-08-11T00:53:40.857Z,1017.94
2023-08-11T00:54:41.295Z,1017.94
2023-08-11T00:55:41.719Z,1017.97
2023-08-11T00:56:42.149Z,1017.97
2023-08-11T00:57:42.583Z,1017.98
2023-08-11T00:58:43.008Z,1018.00
2023-08-11T00:59:43.464Z,1018.01
2023-08-11T01:00:43.873Z,1018.00
2023-08-11T01:01:44.331Z,1018.03
2023-08-11T01:02:44.798Z,1018.02
2023-08-11T01:03:45.162Z,1018.01
2023-08-11T01:04:45.618Z,1018.02
2023-08-11T01:05:46.023Z,1018.02
2023-08-11T01:06:46.468Z,1018.02
2023-08-11T01:07:46.884Z,1018.02
2023-08-11T01:08:47.314Z,1018.00
2023-08-11T01:09:47.755Z,1018.02
2023-08-11T01:10:48.191Z,1018.02
2023-08-11T01:11:48.624Z,1018.02
2023-08-11T01:12:49.044Z,1018.02
2023-08-11T01:13:49.467Z,1018.00
2023-08-11T01:14:49.913Z,1017.98
2023-08-11T01:15:50.335Z,1018.03
2023-08-11T01:16:50.782Z,1018.06
2023-08-11T01:17:51.209Z,1018.03
2023-08-11T01:18:51.625Z,1017.98
2023-08-11T01:19:52.048Z,1017.98
2023-08-11T01:20:52.476Z,1018.02
2023-08-11T01:21:52.914Z,1017.98
2023-08-11T01:22:53.343Z,1018.00
2023-08-11T01:23:53.772Z,1017.97
2023-08-11T01:24:54.199Z,1017.93
2023-08-11T01:25:54.645Z,1017.93
2023-08-11T01:26:55.064Z,1017.96
2023-08-11T01:27:55.516Z,1017.99
2023-08-11T01:28:55.926Z,1017.96
2023-08-11T01:29:56.351Z,1017.99
2023-08-11T01:30:56.798Z,1017.97
2023-08-11T01:31:57.216Z,1017.96
2023-08-11T01:32:57.665Z,1017.98
2023-08-11T01:33:58.072Z,1017.97
2023-08-11T01:34:58.502Z,1017.99
2023-08-11T01:35:58.934Z,1017.95
2023-08-11T01:36:59.365Z,1017.98
2023-08-11T01:37:59.807Z,1017.96
2023-08-11T01:39:00.228Z,1017.99
2023-08-11T01:40:00.677Z,1017.97
2023-08-11T01:41:01.161Z,1017.97
2023-08-11T01:42:01.526Z,1017.91
2023-08-11T01:43:01.964Z,1017.91
2023-08-11T01:44:02.378Z,1017.87
2023-08-11T01:45:02.807Z,1017.90
2023-08-11T01:46:03.268Z,1017.89
2023-08-11T01:47:03.680Z,1017.91
2023-08-11T01:48:04.129Z,1017.87
2023-08-11T01:49:04.591Z,1017.87
2023-08-11T01:50:04.963Z,1017.87
2023-08-11T01:51:05.390Z,1017.92
2023-08-11T01:52:05.828Z,1017.88
2023-08-11T01:53:06.253Z,1017.88
2023-08-11T01:54:06.683Z,1017.90
2023-08-11T01:55:07.113Z,1017.92
2023-08-11T01:56:07.554Z,1017.90
2023-08-11T01:57:08.181Z,1017.90
2023-08-11T01:58:08.402Z,1017.92
2023-08-11T01:59:08.832Z,1017.86
2023-08-11T02:00:09.261Z,1017.84
2023-08-11T02:01:09.694Z,1017.86
2023-08-11T02:02:10.136Z,1017.87
2023-08-11T02:03:10.617Z,1017.90
2023-08-11T02:04:10.984Z,1017.90
2023-08-11T02:05:11.429Z,1017.93
2023-08-11T02:06:11.847Z,1017.92
2023-08-11T02:07:12.276Z,1017.99
2023-08-11T02:08:12.707Z,1017.97
2023-08-11T02:09:13.145Z,1017.97
2023-08-11T02:10:13.579Z,1018.01
2023-08-11T02:11:13.997Z,1018.00
2023-08-11T02:12:14.423Z,1017.99
2023-08-11T02:13:14.863Z,1017.98
2023-08-11T02:14:15.284Z,1017.96
2023-08-11T02:15:15.717Z,1017.95
2023-08-11T02:16:16.182Z,1017.97
2023-08-11T02:17:16.572Z,1017.96
2023-08-11T02:18:17.037Z,1017.95
2023-08-11T02:19:17.432Z,1017.96
2023-08-11T02:20:17.866Z,1017.96
2023-08-11T02:21:18.295Z,1017.92
2023-08-11T02:22:18.723Z,1017.95
2023-08-11T02:23:19.152Z,1017.93
2023-08-11T02:24:19.593Z,1017.95
2023-08-11T02:25:20.029Z,1017.89
2023-08-11T02:26:20.485Z,1017.89
2023-08-11T02:27:20.872Z,1017.89
2023-08-11T02:28:21.310Z,1017.87
2023-08-11T02:29:21.738Z,1017.92
2023-08-11T02:30:22.172Z,1017.92
2023-08-11T02:31:22.611Z,1017.92
2023-08-11T02:32:23.020Z,1017.95
2023-08-11T02:33:23.462Z,1017.93
2023-08-11T02:34:23.889Z,1017.93
2023-08-11T02:35:24.322Z,1017.91
2023-08-11T02:36:24.744Z,1017.90
2023-08-11T02:37:25.175Z,1017.89
2023-08-11T02:38:25.603Z,1017.91
2023-08-11T02:39:26.035Z,1017.92
2023-08-11T02:40:26.469Z,1017.93
2023-08-11T02:41:26.900Z,1017.95
2023-08-11T02:42:27.339Z,1017.95
2023-08-11T02:43:27.759Z,1017.98
2023-08-11T02:44:28.187Z,1017.97
2023-08-11T02:45:28.625Z,1017.94
2023-08-11T02:46:29.052Z,1017.95
2023-08-11T02:47:29.483Z,1017.95
2023-08-11T02:48:29.910Z,1017.98
2023-08-11T02:49:30.337Z,1017.96
2023-08-11T02:50:30.806Z,1017.97
2023-08-11T02:51:31.210Z,1017.92
2023-08-11T02:52:31.631Z,1017.94
2023-08-11T02:53:32.073Z,1017.90
2023-08-11T02:54:32.490Z,1017.89
2023-08-11T02:55:32.918Z,1017.90
2023-08-11T02:56:33.351Z,1017.88
2023-08-11T02:57:33.781Z,1017.91
2023-08-11T02:58:34.212Z,1017.88
2023-08-11T02:59:34.637Z,1017.90
2023-08-11T03:00:35.068Z,1017.90
2023-08-11T03:01:35.582Z,1017.93
2023-08-11T03:02:35.989Z,1017.93
2023-08-11T03:03:36.404Z,1017.94
2023-08-11T03:04:36.787Z,1017.92
2023-08-11T03:05:37.221Z,1017.94
2023-08-11T03:06:37.666Z,1017.91
2023-08-11T03:07:38.079Z,1017.88
2023-08-11T03:08:38.510Z,1017.91
2023-08-11T03:09:38.942Z,1017.91
2023-08-11T03:10:46.920Z,1017.91
2023-08-11T03:11:39.813Z,1017.89
2023-08-11T03:12:40.230Z,1017.90
2023-08-11T03:13:40.667Z,1017.85
2023-08-11T03:14:41.092Z,1017.86
2023-08-11T03:15:41.530Z,1017.84
2023-08-11T03:16:41.949Z,1017.87
2023-08-11T03:17:42.412Z,1017.87
2023-08-11T03:18:42.837Z,1017.84
2023-08-11T03:19:43.246Z,1017.86
2023-08-11T03:20:43.673Z,1017.85
2023-08-11T03:21:44.101Z,1017.86
2023-08-11T03:22:44.603Z,1017.83
2023-08-11T03:23:44.979Z,1017.83
2023-08-11T03:24:45.414Z,1017.80
2023-08-11T03:25:45.840Z,1017.79
2023-08-11T03:26:46.263Z,1017.81
2023-08-11T03:27:46.686Z,1017.79
2023-08-11T03:28:47.115Z,1017.80
2023-08-11T03:29:47.545Z,1017.81
2023-08-11T03:30:47.982Z,1017.81
2023-08-11T03:31:48.504Z,1017.79
2023-08-11T03:32:48.912Z,1017.80
2023-08-11T03:33:49.308Z,1017.83
2023-08-11T03:34:49.711Z,1017.83
2023-08-11T03:35:50.130Z,1017.77
2023-08-11T03:36:50.559Z,1017.75
2023-08-11T03:37:50.992Z,1017.79
2023-08-11T03:38:51.437Z,1017.77
2023-08-11T03:39:51.859Z,1017.78
2023-08-11T03:40:52.318Z,1017.72
2023-08-11T03:41:52.713Z,1017.74
2023-08-11T03:42:53.142Z,1017.72
2023-08-11T03:43:53.571Z,1017.69
2023-08-11T03:44:54.009Z,1017.71
2023-08-11T03:45:54.432Z,1017.69
2023-08-11T03:46:54.943Z,1017.68
2023-08-11T03:47:55.356Z,1017.68
2023-08-11T03:48:55.724Z,1017.70
2023-08-11T03:49:56.155Z,1017.71
2023-08-11T03:50:56.594Z,1017.70
2023-08-11T03:51:57.062Z,1017.73
2023-08-11T03:52:57.449Z,1017.73
2023-08-11T03:53:58.689Z,1017.78
2023-08-11T03:54:58.306Z,1017.80
2023-08-11T03:55:58.769Z,1017.77
2023-08-11T03:56:59.168Z,1017.77
2023-08-11T03:57:59.632Z,1017.78
2023-08-11T03:59:00.034Z,1017.78
2023-08-11T04:00:00.463Z,1017.73
2023-08-11T04:01:00.906Z,1017.79
2023-08-11T04:02:01.320Z,1017.74
2023-08-11T04:03:01.834Z,1017.77
2023-08-11T04:04:02.180Z,1017.78
2023-08-11T04:05:02.609Z,1017.78
2023-08-11T04:06:03.038Z,1017.79
2023-08-11T04:07:03.626Z,1017.76
2023-08-11T04:08:03.891Z,1017.79
2023-08-11T04:09:04.327Z,1017.79
2023-08-11T04:10:04.759Z,1017.80
2023-08-11T04:11:05.199Z,1017.77
2023-08-11T04:12:05.758Z,1017.73
2023-08-11T04:13:06.079Z,1017.76
2023-08-11T04:14:06.480Z,1017.78
2023-08-11T04:15:06.922Z,1017.78
2023-08-11T04:16:07.352Z,1017.78
2023-08-11T04:17:07.770Z,1017.84
2023-08-11T04:18:08.231Z,1017.82
2023-08-11T04:19:08.879Z,1017.84
2023-08-11T04:20:09.070Z,1017.84
2023-08-11T04:21:09.493Z,1017.85
2023-08-11T04:22:10.138Z,1017.85
2023-08-11T04:23:10.356Z,1017.82
2023-08-11T04:24:10.790Z,1017.86
2023-08-11T04:25:11.218Z,1017.83
2023-08-11T04:26:11.676Z,1017.85
2023-08-11T04:27:12.095Z,1017.82
2023-08-11T04:28:12.507Z,1017.83
2023-08-11T04:29:12.938Z,1017.85
2023-08-11T04:30:13.458Z,1017.85
2023-08-11T04:31:13.874Z,1017.84
2023-08-11T04:32:14.227Z,1017.86
2023-08-11T04:33:14.707Z,1017.86
2023-08-11T04:34:15.084Z,1017.82
2023-08-11T04:35:15.535Z,1017.84
2023-08-11T04:36:15.959Z,1017.86
2023-08-11T04:37:16.410Z,1017.84
2023-08-11T04:38:16.835Z,1017.81
2023-08-11T04:39:17.265Z,1017.84
2023-08-11T04:40:17.678Z,1017.83
2023-08-11T04:41:18.107Z,1017.81
2023-08-11T04:42:18.560Z,1017.86
2023-08-11T04:43:18.973Z,1017.86
2023-08-11T04:44:19.409Z,1017.89
2023-08-11T04:45:19.831Z,1017.88
2023-08-11T04:46:20.309Z,1017.85
2023-08-11T04:47:20.688Z,1017.86
2023-08-11T04:48:21.124Z,1017.90
2023-08-11T04:49:21.556Z,1017.88
2023-08-11T04:50:21.984Z,1017.90
2023-08-11T04:51:22.428Z,1017.90
2023-08-11T04:52:22.861Z,1017.95
2023-08-11T04:53:23.322Z,1017.94
2023-08-11T04:54:23.715Z,1017.96
2023-08-11T04:55:24.148Z,1017.92
2023-08-11T04:56:24.587Z,1017.97
2023-08-11T04:57:25.010Z,1018.00
2023-08-11T04:58:25.440Z,1017.98
2023-08-11T04:59:25.881Z,1018.03
2023-08-11T05:00:26.298Z,1018.00
2023-08-11T05:01:26.750Z,1018.04
2023-08-11T05:02:27.168Z,1018.03
2023-08-11T05:03:27.646Z,1018.03
2023-08-11T05:04:28.029Z,1018.05
2023-08-11T05:05:28.457Z,1018.04
2023-08-11T05:06:28.922Z,1018.03
2023-08-11T05:07:29.318Z,1018.05
2023-08-11T05:08:29.770Z,1018.06
2023-08-11T05:09:30.189Z,1018.05
2023-08-11T05:10:30.614Z,1018.09
2023-08-11T05:11:31.044Z,1018.11
2023-08-11T05:12:31.486Z,1018.07
2023-08-11T05:13:31.934Z,1018.05
2023-08-11T05:14:32.364Z,1018.05
2023-08-11T05:15:32.775Z,1018.08
2023-08-11T05:16:33.289Z,1018.12
2023-08-11T05:17:33.702Z,1018.09
2023-08-11T05:18:43.041Z,1018.08
2023-08-11T05:19:34.498Z,1018.11
2023-08-11T05:20:34.931Z,1018.15
2023-08-11T05:21:35.363Z,1018.13
2023-08-11T05:22:35.801Z,1018.16
2023-08-11T05:23:36.224Z,1018.13
2023-08-11T05:24:36.654Z,1018.14
2023-08-11T05:25:37.109Z,1018.16
2023-08-11T05:26:37.525Z,1018.12
2023-08-11T05:27:37.953Z,1018.15
2023-08-11T05:28:38.381Z,1018.13
2023-08-11T05:29:38.828Z,1018.17
2023-08-11T05:30:39.245Z,1018.15
2023-08-11T05:31:39.740Z,1018.14
2023-08-11T05:32:40.129Z,1018.15
2023-08-11T05:33:40.543Z,1018.18
2023-08-11T05:34:40.980Z,1018.20
2023-08-11T05:35:41.403Z,1018.18
2023-08-11T05:36:41.836Z,1018.20
2023-08-11T05:37:42.312Z,1018.22
2023-08-11T05:38:42.705Z,1018.26
2023-08-11T05:39:43.134Z,1018.22
2023-08-11T05:40:43.561Z,1018.20
2023-08-11T05:41:44.003Z,1018.19
2023-08-11T05:42:44.441Z,1018.21
2023-08-11T05:43:44.857Z,1018.26
2023-08-11T05:44:45.292Z,1018.26
2023-08-11T05:45:45.736Z,1018.24
2023-08-11T05:46:46.157Z,1018.26
2023-08-11T05:47:46.639Z,1018.25
2023-08-11T05:48:47.020Z,1018.26
2023-08-11T05:49:47.472Z,1018.28
2023-08-11T05:50:47.907Z,1018.29
2023-08-11T05:51:48.326Z,1018.21
2023-08-11T05:52:48.760Z,1018.21
2023-08-11T05:53:50.200Z,1018.24
2023-08-11T05:54:49.620Z,1018.24
2023-08-11T05:55:50.109Z,1018.24
2023-08-11T05:56:50.486Z,1018.27
2023-08-11T05:57:50.939Z,1018.23
2023-08-11T05:58:51.357Z,1018.27
2023-08-11T05:59:51.795Z,1018.25
2023-08-11T06:00:52.601Z,1018.24
2023-08-11T06:01:52.657Z,1018.27
2023-08-11T06:02:53.128Z,1018.26
2023-08-11T06:03:53.588Z,1018.32
2023-08-11T06:04:53.966Z,1018.27
2023-08-11T06:05:54.396Z,1018.24
2023-08-11T06:06:54.867Z,1018.25
2023-08-11T06:08:05.294Z,1018.27
2023-08-11T06:08:55.701Z,1018.24
2023-08-11T06:09:56.138Z,1018.24
2023-08-11T06:10:56.577Z,1018.20
2023-08-11T06:11:57.003Z,1018.19
2023-08-11T06:12:57.435Z,1018.22
2023-08-11T06:13:57.875Z,1018.23
2023-08-11T06:14:58.306Z,1018.19
2023-08-11T06:15:58.804Z,1018.22
2023-08-11T06:16:59.175Z,1018.27
2023-08-11T06:17:59.675Z,1018.22
2023-08-11T06:19:00.041Z,1018.23
2023-08-11T06:20:00.485Z,1018.27
2023-08-11T06:21:00.938Z,1018.28
2023-08-11T06:22:01.355Z,1018.27
2023-08-11T06:23:01.785Z,1018.28
2023-08-11T06:24:02.239Z,1018.32
2023-08-11T06:25:02.677Z,1018.30
2023-08-11T06:26:03.100Z,1018.32
2023-08-11T06:27:03.529Z,1018.30
2023-08-11T06:28:03.971Z,1018.31
2023-08-11T06:29:04.417Z,1018.30
2023-08-11T06:30:04.839Z,1018.28
2023-08-11T06:31:05.321Z,1018.28
2023-08-11T06:32:05.710Z,1018.33
2023-08-11T06:33:06.324Z,1018.31
2023-08-11T06:34:06.593Z,1018.30
2023-08-11T06:35:07.023Z,1018.29
2023-08-11T06:36:07.463Z,1018.30
2023-08-11T06:37:08.084Z,1018.30
2023-08-11T06:38:08.333Z,1018.32
2023-08-11T06:39:08.765Z,1018.33
2023-08-11T06:40:09.219Z,1018.41
2023-08-11T06:41:09.644Z,1018.41
2023-08-11T06:42:10.075Z,1018.38
2023-08-11T06:43:10.528Z,1018.31
2023-08-11T06:44:10.958Z,1018.31
2023-08-11T06:45:11.413Z,1018.30
2023-08-11T06:46:11.891Z,1018.31
2023-08-11T06:47:12.282Z,1018.31
2023-08-11T06:48:12.773Z,1018.32
2023-08-11T06:49:13.138Z,1018.34
2023-08-11T06:50:13.582Z,1018.33
2023-08-11T06:51:14.019Z,1018.38
2023-08-11T06:52:14.454Z,1018.37
2023-08-11T06:53:14.885Z,1018.36
2023-08-11T06:54:15.363Z,1018.38
2023-08-11T06:55:15.771Z,1018.46
2023-08-11T06:56:16.202Z,1018.47
2023-08-11T06:57:16.710Z,1018.43
2023-08-11T06:58:17.076Z,1018.48
2023-08-11T06:59:17.512Z,1018.48
2023-08-11T07:00:17.956Z,1018.48
2023-08-11T07:01:18.416Z,1018.47
2023-08-11T07:02:18.834Z,1018.48
2023-08-11T07:03:19.310Z,1018.53
2023-08-11T07:04:19.700Z,1018.52
2023-08-11T07:05:20.138Z,1018.54
2023-08-11T07:06:20.576Z,1018.52
2023-08-11T07:07:21.024Z,1018.56
2023-08-11T07:08:21.454Z,1018.59
2023-08-11T07:09:21.895Z,1018.58
2023-08-11T07:10:22.488Z,1018.62
2023-08-11T07:11:22.758Z,1018.62
2023-08-11T07:12:23.212Z,1018.65
2023-08-11T07:13:23.644Z,1018.68
2023-08-11T07:14:24.085Z,1018.68
2023-08-11T07:15:24.522Z,1018.65
2023-08-11T07:16:24.974Z,1018.70
2023-08-11T07:17:25.394Z,1018.64
2023-08-11T07:18:25.834Z,1018.64
2023-08-11T07:19:26.268Z,1018.63
2023-08-11T07:20:26.714Z,1018.61
2023-08-11T07:21:27.139Z,1018.61
2023-08-11T07:22:27.584Z,1018.60
2023-08-11T07:23:28.037Z,1018.67
2023-08-11T07:24:28.452Z,1018.67
2023-08-11T07:25:28.889Z,1018.63
2023-08-11T07:26:29.328Z,1018.66
2023-08-11T07:27:29.775Z,1018.68
2023-08-11T07:28:30.254Z,1018.65
2023-08-11T07:29:30.645Z,1018.67
2023-08-11T07:30:31.086Z,1018.69
2023-08-11T07:31:31.527Z,1018.69
2023-08-11T07:32:31.976Z,1018.68
2023-08-11T07:33:32.401Z,1018.66
2023-08-11T07:34:32.865Z,1018.65
2023-08-11T07:35:33.275Z,1018.69
2023-08-11T07:36:33.852Z,1018.64
2023-08-11T07:37:34.162Z,1018.64
2023-08-11T07:38:34.667Z,1018.62
2023-08-11T07:39:35.017Z,1018.65
2023-08-11T07:40:35.492Z,1018.60
2023-08-11T07:41:35.905Z,1018.63
2023-08-11T07:42:36.344Z,1018.62
2023-08-11T07:43:36.797Z,1018.65
2023-08-11T07:44:37.232Z,1018.64
2023-08-11T07:45:37.682Z,1018.68
2023-08-11T07:46:38.189Z,1018.64
2023-08-11T07:47:38.599Z,1018.64
2023-08-11T07:48:39.002Z,1018.69
2023-08-11T07:49:39.428Z,1018.69
2023-08-11T07:50:39.869Z,1018.70
2023-08-11T07:51:40.312Z,1018.67
2023-08-11T07:52:40.749Z,1018.68
2023-08-11T07:53:41.192Z,1018.68
2023-08-11T07:54:41.711Z,1018.66
2023-08-11T07:55:42.125Z,1018.70
2023-08-11T07:56:42.521Z,1018.70
2023-08-11T07:57:42.974Z,1018.68
2023-08-11T07:58:43.459Z,1018.69
2023-08-11T07:59:43.875Z,1018.73
2023-08-11T08:00:44.294Z,1018.74
2023-08-11T08:01:44.752Z,1018.77
2023-08-11T08:02:45.251Z,1018.73
2023-08-11T08:03:48.617Z,1018.70
2023-08-11T08:04:46.063Z,1018.70
2023-08-11T08:05:46.515Z,1018.74
2023-08-11T08:06:47.209Z,1018.76
2023-08-11T08:07:47.401Z,1018.77
2023-08-11T08:08:47.845Z,1018.71
2023-08-11T08:09:48.334Z,1018.66
2023-08-11T08:10:48.740Z,1018.72
2023-08-11T08:11:49.189Z,1018.71
2023-08-11T08:12:49.631Z,1018.64
2023-08-11T08:13:50.095Z,1018.66
2023-08-11T08:14:50.540Z,1018.71
2023-08-11T08:15:50.974Z,1018.67
2023-08-11T08:16:51.432Z,1018.67
2023-08-11T08:17:51.908Z,1018.66
2023-08-11T08:18:52.326Z,1018.65
2023-08-11T08:19:52.761Z,1018.61
2023-08-11T08:20:53.202Z,1018.60
2023-08-11T08:21:53.653Z,1018.56
2023-08-11T08:22:54.108Z,1018.58
2023-08-11T08:23:54.553Z,1018.57
2023-08-11T08:24:55.004Z,1018.58
2023-08-11T08:25:55.470Z,1018.59
2023-08-11T08:26:55.904Z,1018.57
2023-08-11T08:28:05.345Z,1018.56
2023-08-11T08:28:56.839Z,1018.50
2023-08-11T08:29:57.266Z,1018.47
2023-08-11T08:30:57.725Z,1018.48
2023-08-11T08:31:58.175Z,1018.48
2023-08-11T08:32:58.683Z,1018.49
2023-08-11T08:33:59.163Z,1018.49
2023-08-11T08:34:59.548Z,1018.51
2023-08-11T08:36:00.028Z,1018.54
2023-08-11T08:37:00.462Z,1018.46
2023-08-11T08:38:00.929Z,1018.52
2023-08-11T08:39:01.387Z,1018.53
2023-08-11T08:40:01.841Z,1018.57
2023-08-11T08:41:02.318Z,1018.57
2023-08-11T08:42:02.757Z,1018.57
2023-08-11T08:43:03.236Z,1018.58
2023-08-11T08:44:03.685Z,1018.58
2023-08-11T08:45:04.143Z,1018.57
2023-08-11T08:46:04.650Z,1018.55
2023-08-11T08:47:05.074Z,1018.49
2023-08-11T08:48:05.558Z,1018.54
2023-08-11T08:49:05.993Z,1018.52
2023-08-11T08:50:06.484Z,1018.51
2023-08-11T08:51:06.936Z,1018.55
2023-08-11T08:52:07.394Z,1018.52
2023-08-11T08:53:07.847Z,1018.53
2023-08-11T08:54:08.314Z,1018.60
2023-08-11T08:55:08.781Z,1018.59
2023-08-11T08:56:09.301Z,1018.58
2023-08-11T08:57:10.126Z,1018.57
2023-08-11T08:58:10.177Z,1018.61
2023-08-11T08:59:10.661Z,1018.61
2023-08-11T09:00:11.134Z,1018.59
2023-08-11T09:01:11.644Z,1018.50
2023-08-11T09:02:12.417Z,1018.52
2023-08-11T09:03:12.655Z,1018.49
2023-08-11T09:04:13.143Z,1018.50
2023-08-11T09:05:13.469Z,1018.49
2023-08-11T09:06:13.900Z,1018.52
2023-08-11T09:07:14.384Z,1018.56
2023-08-11T09:08:14.834Z,1018.53
2023-08-11T09:09:15.301Z,1018.47
2023-08-11T09:10:15.767Z,1018.48
2023-08-11T09:11:16.238Z,1018.53
2023-08-11T09:12:16.740Z,1018.61
2023-08-11T09:13:17.164Z,1018.54
2023-08-11T09:14:17.636Z,1018.60
2023-08-11T09:15:18.100Z,1018.56
2023-08-11T09:16:18.649Z,1018.61
2023-08-11T09:17:19.085Z,1018.57
2023-08-11T09:18:19.541Z,1018.59
2023-08-11T09:19:19.965Z,1018.53
2023-08-11T09:20:20.436Z,1018.53
2023-08-11T09:21:20.952Z,1018.55
2023-08-11T09:22:21.365Z,1018.60
2023-08-11T09:23:23.444Z,1018.61
2023-08-11T09:24:22.309Z,1018.63
2023-08-11T09:25:22.770Z,1018.64
2023-08-11T09:26:23.241Z,1018.58
2023-08-11T09:27:23.699Z,1018.58
2023-08-11T09:28:24.167Z,1018.59
2023-08-11T09:29:24.640Z,1018.60
2023-08-11T09:30:25.098Z,1018.70
2023-08-11T09:31:25.600Z,1018.70
2023-08-11T09:32:27.113Z,1018.72
2023-08-11T09:33:26.485Z,1018.70
2023-08-11T09:34:26.974Z,1018.73
2023-08-11T09:35:27.456Z,1018.74
2023-08-11T09:36:27.885Z,1018.74
2023-08-11T09:37:29.225Z,1018.65
2023-08-11T09:38:28.810Z,1018.60
2023-08-11T09:39:29.271Z,1018.62
2023-08-11T09:40:29.739Z,1018.64
2023-08-11T09:41:30.231Z,1018.64
2023-08-11T09:43:32.515Z,1018.78
2023-08-11T09:44:31.628Z,1018.79
2023-08-11T09:45:32.119Z,1018.85
2023-08-11T09:46:33.268Z,1018.83
2023-08-11T09:47:33.036Z,1018.78
2023-08-11T09:48:33.455Z,1018.78
2023-08-11T09:49:55.093Z,1018.81
2023-08-11T09:50:34.379Z,1018.82
2023-08-11T09:51:34.901Z,1018.73
2023-08-11T09:52:35.416Z,1018.74
2023-08-11T09:53:35.886Z,1018.75
2023-08-11T09:54:45.577Z,1018.73
2023-08-11T09:55:57.825Z,1018.77
2023-08-11T09:56:37.134Z,1018.76
2023-08-11T09:57:37.585Z,1018.73
2023-08-11T09:58:38.201Z,1018.77
2023-08-11T09:59:38.481Z,1018.80
2023-08-11T10:00:38.955Z,1018.81
2023-08-11T10:02:00.626Z,1018.79
2023-08-11T10:02:40.028Z,1018.77
2023-08-11T10:03:40.386Z,1018.81
2023-08-11T10:04:40.810Z,1018.87
2023-08-11T10:05:41.232Z,1018.83
2023-08-11T10:06:41.771Z,1018.79
2023-08-11T10:08:03.338Z,1018.76
2023-08-11T10:08:42.643Z,1018.77
2023-08-11T10:09:43.072Z,1018.75
2023-08-11T10:10:43.594Z,1018.76
2023-08-11T10:11:43.994Z,1018.75
2023-08-11T10:12:44.425Z,1018.76
2023-08-11T10:14:06.077Z,1018.73
2023-08-11T10:14:46.340Z,1018.74
2023-08-11T10:15:45.900Z,1018.75
2023-08-11T10:16:46.268Z,1018.64
2023-08-11T10:17:46.833Z,1018.67
2023-08-11T10:18:47.183Z,1018.72
2023-08-11T10:20:08.817Z,1018.73
2023-08-11T10:20:48.113Z,1018.73
2023-08-11T10:21:48.574Z,1018.70
2023-08-11T10:22:49.057Z,1018.71
2023-08-11T10:23:49.520Z,1018.67
2023-08-11T10:24:50.015Z,1018.64
2023-08-11T10:26:11.598Z,1018.67
2023-08-11T10:26:50.885Z,1018.63
2023-08-11T10:27:51.342Z,1018.61
2023-08-11T10:28:51.804Z,1018.58
2023-08-11T10:29:52.281Z,1018.54
2023-08-11T10:30:52.790Z,1018.53
2023-08-11T10:32:14.385Z,1018.55
2023-08-11T10:32:54.731Z,1018.52
2023-08-11T10:33:54.129Z,1018.53
2023-08-11T10:34:54.591Z,1018.55
2023-08-11T10:35:55.074Z,1018.54
2023-08-11T10:36:55.546Z,1018.55
2023-08-11T10:38:17.175Z,1018.56
2023-08-11T10:38:56.464Z,1018.58
2023-08-11T10:39:58.590Z,1018.64
2023-08-11T10:40:57.400Z,1018.66
2023-08-11T10:41:57.882Z,1018.63
2023-08-11T10:42:58.336Z,1018.63
2023-08-11T10:44:20.002Z,1018.58
2023-08-11T10:44:59.298Z,1018.59
2023-08-11T10:45:59.722Z,1018.53
2023-08-11T10:47:00.230Z,1018.51
2023-08-11T10:48:00.711Z,1018.57
2023-08-11T10:49:01.167Z,1018.56
2023-08-11T10:50:22.758Z,1018.52
2023-08-11T10:51:02.071Z,1018.53
2023-08-11T10:52:02.508Z,1018.50
2023-08-11T10:53:02.971Z,1018.44
2023-08-11T10:54:03.441Z,1018.46
2023-08-11T10:55:03.892Z,1018.48
2023-08-11T10:56:25.619Z,1018.49
2023-08-11T10:57:04.931Z,1018.49
2023-08-11T10:58:06.779Z,1018.47
2023-08-11T10:59:05.777Z,1018.45
2023-08-11T11:00:06.208Z,1018.43
2023-08-11T11:01:06.750Z,1018.41
2023-08-11T11:02:28.340Z,1018.39
2023-08-11T11:03:07.622Z,1018.44
2023-08-11T11:04:08.068Z,1018.43
2023-08-11T11:05:08.587Z,1018.46
2023-08-11T11:06:09.001Z,1018.41
2023-08-11T11:07:09.471Z,1018.44
2023-08-11T11:08:31.105Z,1018.47
2023-08-11T11:09:10.401Z,1018.41
2023-08-11T11:10:10.862Z,1018.38
2023-08-11T11:11:11.362Z,1018.37
2023-08-11T11:12:12.232Z,1018.36
2023-08-11T11:13:12.276Z,1018.38
2023-08-11T11:14:33.913Z,1018.35
2023-08-11T11:15:13.221Z,1018.32
2023-08-11T11:16:13.910Z,1018.33
2023-08-11T11:17:14.156Z,1018.29
2023-08-11T11:18:14.633Z,1018.26
2023-08-11T11:19:15.099Z,1018.33
2023-08-11T11:20:36.729Z,1018.27
2023-08-11T11:21:16.047Z,1018.30
2023-08-11T11:22:16.506Z,1018.32
2023-08-11T11:23:16.968Z,1018.26
2023-08-11T11:24:17.430Z,1018.26
2023-08-11T11:25:17.896Z,1018.26
2023-08-11T11:26:39.542Z,1018.21
2023-08-11T11:27:18.901Z,1018.23
2023-08-11T11:28:19.309Z,1018.25
2023-08-11T11:29:19.783Z,1018.25
2023-08-11T11:30:20.283Z,1018.24
2023-08-11T11:31:20.722Z,1018.27
2023-08-11T11:32:42.384Z,1018.22
2023-08-11T11:33:21.653Z,1018.20
2023-08-11T11:34:22.189Z,1018.19
2023-08-11T11:35:22.611Z,1018.24
2023-08-11T11:36:23.090Z,1018.27
2023-08-11T11:37:23.531Z,1018.23
2023-08-11T11:38:45.189Z,1018.25
2023-08-11T11:39:24.534Z,1018.25
2023-08-11T11:40:24.950Z,1018.21
2023-08-11T11:41:25.418Z,1018.22
2023-08-11T11:42:25.889Z,1018.19
2023-08-11T11:43:26.406Z,1018.19
2023-08-11T11:44:48.004Z,1018.22
2023-08-11T11:45:27.306Z,1018.33
2023-08-11T11:46:27.818Z,1018.34
2023-08-11T11:47:28.289Z,1018.35
2023-08-11T11:48:28.680Z,1018.33
2023-08-11T11:49:30.642Z,1018.29
2023-08-11T11:50:50.812Z,1018.32
2023-08-11T11:51:30.062Z,1018.31
2023-08-11T11:52:30.542Z,1018.36
2023-08-11T11:53:30.995Z,1018.37
2023-08-11T11:54:31.470Z,1018.35
2023-08-11T11:55:31.914Z,1018.33
2023-08-11T11:57:03.437Z,1018.30
2023-08-11T11:57:32.822Z,1018.31
2023-08-11T11:58:33.271Z,1018.32
2023-08-11T11:59:33.780Z,1018.30
2023-08-11T12:00:34.186Z,1018.37
2023-08-11T12:01:34.643Z,1018.37
2023-08-11T12:02:56.281Z,1018.32
2023-08-11T12:03:35.564Z,1018.27
2023-08-11T12:04:36.147Z,1018.27
2023-08-11T12:05:36.511Z,1018.28
2023-08-11T12:06:36.912Z,1018.28
2023-08-11T12:07:37.384Z,1018.31
2023-08-11T12:08:58.967Z,1018.29
2023-08-11T12:09:38.260Z,1018.28
2023-08-11T12:10:38.693Z,1018.32
2023-08-11T12:11:39.151Z,1018.29